Time;durP1;ratioP1;P1;durP2;ratioP2;P2;SDS_P1;SDS_P2;PMS_P1;PMS_P2;Temp;Humidity;BMP_temperature;BMP_pressure;BME280_temperature;BME280_humidity;BME280_pressure;Samples;Min_cycle;Max_cycle;Signal;HPM_P1;HPM_P2
2021/01/28 00:00:15;;;;;;;261.63;62.92;;;;;;;5.39;100.00;100535.88;5007799;28;20096;-79
2021/01/28 00:02:40;;;;;;;263.42;57.47;;;;;;;5.39;100.00;100536.72;5008426;28;20554;-80
2021/01/28 00:05:07;;;;;;;248.63;57.85;;;;;;;5.40;100.00;100540.22;5019095;28;20057;-81
2021/01/28 00:07:32;;;;;;;235.63;53.55;;;;;;;5.40;100.00;100526.91;5010653;28;20080;-82
2021/01/28 00:09:58;;;;;;;247.68;61.08;;;;;;;5.40;100.00;100526.91;5015650;28;20512;-87
2021/01/28 00:12:23;;;;;;;213.18;49.92;;;;;;;5.39;100.00;100511.94;5007840;28;20475;-79
2021/01/28 00:14:49;;;;;;;224.68;53.63;;;;;;;5.40;100.00;100513.59;5004739;28;20070;-82
2021/01/28 00:17:14;;;;;;;221.52;57.85;;;;;;;5.40;100.00;100517.09;5012495;28;20045;-82
2021/01/28 00:19:39;;;;;;;239.23;59.25;;;;;;;5.39;100.00;100511.94;5009215;28;20029;-79
2021/01/28 00:22:06;;;;;;;225.88;50.47;;;;;;;5.39;100.00;100512.78;5011075;28;20057;-80
2021/01/28 00:24:33;;;;;;;226.05;51.95;;;;;;;5.39;100.00;100512.78;5002887;28;20470;-79
2021/01/28 00:26:58;;;;;;;226.82;45.63;;;;;;;5.41;100.00;100510.00;5007312;28;20455;-83
2021/01/28 00:29:24;;;;;;;227.85;57.35;;;;;;;5.42;100.00;100515.16;5010009;28;20041;-79
2021/01/28 00:31:51;;;;;;;221.65;48.13;;;;;;;5.42;100.00;100512.50;5010358;28;20492;-83
2021/01/28 00:34:17;;;;;;;237.95;59.53;;;;;;;5.41;100.00;100524.13;5009213;28;20041;-81
2021/01/28 00:36:42;;;;;;;222.35;52.38;;;;;;;5.42;100.00;100516.97;5012531;28;20111;-82
2021/01/28 00:39:08;;;;;;;230.50;52.45;;;;;;;5.41;100.00;100513.50;5009601;28;20133;-80
2021/01/28 00:41:33;;;;;;;229.88;60.15;;;;;;;5.42;100.00;100517.81;5026910;28;20030;-80
2021/01/28 00:43:59;;;;;;;229.95;53.17;;;;;;;5.43;100.00;100516.81;5011347;28;20423;-82
2021/01/28 00:46:25;;;;;;;248.18;60.72;;;;;;;5.41;100.00;100500.19;5007941;28;20105;-80
2021/01/28 00:48:51;;;;;;;211.65;57.35;;;;;;;5.42;100.00;100501.84;5005041;28;20053;-83
2021/01/28 00:51:17;;;;;;;229.18;59.45;;;;;;;5.41;100.00;100494.03;5016184;28;20038;-80
2021/01/28 00:53:42;;;;;;;229.63;59.50;;;;;;;5.41;100.00;100491.38;5011836;28;20052;-81
2021/01/28 00:56:08;;;;;;;226.80;54.80;;;;;;;5.43;100.00;100494.69;4998561;28;20061;-84
2021/01/28 00:58:34;;;;;;;211.45;54.58;;;;;;;5.41;100.00;100491.38;5005455;28;20048;-80
2021/01/28 01:01:00;;;;;;;220.23;58.85;;;;;;;5.39;100.00;100480.84;5000375;28;20513;-82
2021/01/28 01:03:28;;;;;;;215.25;56.58;;;;;;;5.40;100.00;100471.03;5021387;28;20044;-86
2021/01/28 01:05:55;;;;;;;215.70;54.77;;;;;;;5.40;100.00;100465.72;5011861;28;20048;-87
2021/01/28 01:08:24;;;;;;;188.13;48.03;;;;;;;5.40;100.00;100465.72;5003798;28;20393;-79
2021/01/28 01:10:54;;;;;;;198.25;48.40;;;;;;;5.40;100.00;100476.34;5008834;28;20056;-81
2021/01/28 01:13:23;;;;;;;191.95;49.00;;;;;;;5.39;100.00;100466.69;5009710;28;20052;-83
2021/01/28 01:15:48;;;;;;;207.90;57.45;;;;;;;5.39;100.00;100454.22;5015229;28;20038;-80
2021/01/28 01:18:17;;;;;;;198.43;53.10;;;;;;;5.37;100.00;100458.00;5004966;28;20138;-79
2021/01/28 01:20:43;;;;;;;195.43;44.83;;;;;;;5.37;100.00;100447.38;5010065;28;20095;-80
2021/01/28 01:23:08;;;;;;;213.30;58.30;;;;;;;5.37;100.00;100447.38;5001170;28;20041;-82
2021/01/28 01:25:33;;;;;;;213.75;57.97;;;;;;;5.37;100.00;100450.03;4997084;28;20125;-80
2021/01/28 01:27:59;;;;;;;221.52;56.42;;;;;;;5.36;100.00;100449.19;5005981;28;20042;-83
2021/01/28 01:30:25;;;;;;;194.65;45.20;;;;;;;5.37;100.00;100450.03;5009486;28;20053;-83
2021/01/28 01:32:51;;;;;;;178.68;47.50;;;;;;;5.36;100.00;100429.72;5004021;28;20042;-82
2021/01/28 01:35:20;;;;;;;188.23;49.08;;;;;;;5.35;100.00;100436.88;5001508;28;20056;-80
2021/01/28 01:37:46;;;;;;;185.02;51.70;;;;;;;5.35;100.00;100436.00;5007584;28;20566;-80
2021/01/28 01:40:17;;;;;;;180.77;50.88;;;;;;;5.34;100.00;100423.69;5011027;28;20121;-79
2021/01/28 01:42:49;;;;;;;164.63;41.55;;;;;;;5.33;100.00;100422.03;5003862;28;20042;-84
2021/01/28 01:45:18;;;;;;;193.32;48.45;;;;;;;5.31;100.00;100418.66;5011692;28;20120;-81
2021/01/28 01:47:53;;;;;;;191.82;53.33;;;;;;;5.31;100.00;100423.97;5006093;28;20045;-83
2021/01/28 01:50:18;;;;;;;201.48;51.83;;;;;;;5.30;100.00;100422.31;5011191;28;20578;-82
2021/01/28 01:52:44;;;;;;;184.13;46.85;;;;;;;5.29;100.00;100416.13;5013453;28;20057;-83
2021/01/28 01:55:09;;;;;;;193.40;57.63;;;;;;;5.29;100.00;100405.47;5011027;28;20125;-82
2021/01/28 01:57:37;;;;;;;207.73;56.20;;;;;;;5.29;100.00;100409.97;5006470;28;20038;-83
2021/01/28 02:00:16;;;;;;;213.63;57.50;;;;;;;5.28;100.00;100409.13;5010616;28;20058;-82
2021/01/28 02:02:45;;;;;;;193.57;55.53;;;;;;;5.28;100.00;100408.28;5008056;28;20037;-82
2021/01/28 02:05:18;;;;;;;207.05;54.70;;;;;;;5.27;100.00;100403.97;5002183;28;20041;-82
2021/01/28 02:07:44;;;;;;;176.57;49.65;;;;;;;5.26;100.00;100397.78;5009962;28;20045;-82
2021/01/28 02:10:13;;;;;;;212.35;58.28;;;;;;;5.25;100.00;100393.44;5011874;28;20046;-82
2021/01/28 02:12:39;;;;;;;194.68;54.47;;;;;;;5.26;100.00;100397.78;5009965;28;20588;-83
2021/01/28 02:15:07;;;;;;;91.70;30.35;;;;;;;5.12;100.00;100403.50;5011575;28;20113;-83
2021/01/28 02:17:33;;;;;;;91.95;27.95;;;;;;;4.97;100.00;100395.09;5010937;28;20105;-82
2021/01/28 02:20:09;;;;;;;69.22;22.90;;;;;;;4.90;100.00;100393.97;5008987;28;20441;-82
2021/01/28 02:22:53;;;;;;;64.32;20.23;;;;;;;4.79;100.00;100392.28;5008041;28;20408;-83
2021/01/28 02:25:31;;;;;;;34.38;11.80;;;;;;;4.66;100.00;100387.22;5005680;28;20053;-83
2021/01/28 02:28:09;;;;;;;35.85;11.25;;;;;;;4.65;100.00;100374.03;5025615;28;20038;-81
2021/01/28 02:30:35;;;;;;;22.33;8.48;;;;;;;4.55;100.00;100383.81;5015153;28;20042;-83
2021/01/28 02:33:02;;;;;;;22.05;8.18;;;;;;;4.52;100.00;100390.25;4995232;28;20065;-82
2021/01/28 02:35:31;;;;;;;22.75;8.35;;;;;;;4.52;100.00;100379.63;5011205;28;20096;-83
2021/01/28 02:37:59;;;;;;;24.02;7.57;;;;;;;4.51;100.00;100373.44;5010808;28;20120;-83
2021/01/28 02:40:28;;;;;;;28.63;8.07;;;;;;;4.51;100.00;100377.91;5004577;28;20436;-83
2021/01/28 02:42:53;;;;;;;27.63;8.73;;;;;;;4.50;100.00;100382.41;5022160;28;20038;-83
2021/01/28 02:45:35;;;;;;;16.20;6.35;;;;;;;4.46;100.00;100372.16;4992002;28;20109;-84
2021/01/28 02:48:04;;;;;;;20.42;6.47;;;;;;;4.44;100.00;100366.16;5005610;28;20046;-84
2021/01/28 02:50:29;;;;;;;19.45;7.00;;;;;;;4.37;100.00;100365.00;5013372;28;20061;-84
2021/01/28 02:52:57;;;;;;;19.00;7.35;;;;;;;4.40;100.00;100359.41;5013369;28;20128;-83
2021/01/28 02:55:25;;;;;;;20.77;7.10;;;;;;;4.42;100.00;100349.50;5001072;28;20054;-83
2021/01/28 02:57:51;;;;;;;19.17;7.32;;;;;;;4.42;100.00;100346.84;5013274;28;20132;-85
2021/01/28 03:00:25;;;;;;;14.88;5.55;;;;;;;4.41;100.00;100340.69;5014220;28;20479;-84
2021/01/28 03:02:51;;;;;;;21.88;6.78;;;;;;;4.42;100.00;100330.91;5006793;28;20070;-84
2021/01/28 03:05:18;;;;;;;16.52;5.43;;;;;;;4.39;100.00;100316.06;5010487;28;20044;-84
2021/01/28 03:07:47;;;;;;;12.82;5.18;;;;;;;4.39;100.00;100315.25;5012655;28;20053;-85
2021/01/28 03:10:13;;;;;;;17.52;5.35;;;;;;;4.37;100.00;100314.53;5014458;28;20104;-84
2021/01/28 03:12:38;;;;;;;19.45;5.90;;;;;;;4.35;100.00;100313.84;5007756;28;20455;-83
2021/01/28 03:15:06;;;;;;;16.20;5.45;;;;;;;4.31;100.00;100302.63;5014623;28;20393;-85
2021/01/28 03:17:32;;;;;;;14.13;4.82;;;;;;;4.28;100.00;100298.41;5015506;28;20037;-85
2021/01/28 03:19:57;;;;;;;15.38;5.47;;;;;;;4.24;100.00;100297.03;5012070;28;20049;-84
2021/01/28 03:22:22;;;;;;;16.55;5.45;;;;;;;4.26;100.00;100299.56;5012141;28;20038;-83
2021/01/28 03:24:48;;;;;;;18.77;6.25;;;;;;;4.28;100.00;100309.06;5015101;28;20069;-84
2021/01/28 03:27:13;;;;;;;14.65;6.03;;;;;;;4.29;100.00;100312.56;5006232;28;20137;-83
2021/01/28 03:29:38;;;;;;;17.17;5.97;;;;;;;4.24;100.00;100318.28;5035198;28;20054;-84
2021/01/28 03:32:04;;;;;;;18.10;6.10;;;;;;;4.22;100.00;100317.56;5010429;28;20109;-84
2021/01/28 03:34:29;;;;;;;18.05;6.55;;;;;;;4.18;100.00;100324.13;4993563;28;20054;-83
2021/01/28 03:36:55;;;;;;;20.13;6.18;;;;;;;4.17;100.00;100317.16;5010304;28;20050;-82
2021/01/28 03:39:20;;;;;;;15.73;5.50;;;;;;;4.19;100.00;100315.19;4989534;28;20039;-82
2021/01/28 03:41:46;;;;;;;16.85;5.65;;;;;;;4.21;100.00;100312.41;4994539;28;20053;-83
2021/01/28 03:44:11;;;;;;;15.43;6.60;;;;;;;4.22;100.00;100312.25;5001893;28;20131;-82
2021/01/28 03:46:36;;;;;;;19.55;6.22;;;;;;;4.23;100.00;100313.09;4996510;28;20045;-82
2021/01/28 03:49:02;;;;;;;19.83;6.57;;;;;;;4.24;100.00;100307.66;4980270;28;20042;-81
2021/01/28 03:51:27;;;;;;;17.08;6.32;;;;;;;4.22;100.00;100304.28;4981186;28;20057;-82
2021/01/28 03:53:53;;;;;;;18.92;6.30;;;;;;;4.23;100.00;100300.66;4981889;28;20041;-81
2021/01/28 03:56:18;;;;;;;20.20;6.80;;;;;;;4.23;100.00;100303.31;4980183;28;20045;-82
2021/01/28 03:58:43;;;;;;;19.52;6.53;;;;;;;4.22;100.00;100306.09;4983648;28;20062;-82
2021/01/28 04:01:09;;;;;;;24.08;7.25;;;;;;;4.22;100.00;100298.97;4971389;28;20046;-81
2021/01/28 04:03:35;;;;;;;20.10;7.20;;;;;;;4.21;100.00;100296.47;4982433;28;20038;-81
2021/01/28 04:06:00;;;;;;;20.73;6.63;;;;;;;4.20;100.00;100297.41;4989773;28;20512;-82
2021/01/28 04:08:25;;;;;;;19.45;7.30;;;;;;;4.20;100.00;100289.44;5007842;28;20089;-81
2021/01/28 04:10:51;;;;;;;19.58;7.55;;;;;;;4.20;100.00;100287.66;4975312;28;20739;-81
2021/01/28 04:13:16;;;;;;;19.95;7.57;;;;;;;4.19;100.00;100293.09;4994137;28;20042;-81
2021/01/28 04:15:42;;;;;;;21.30;6.80;;;;;;;4.16;100.00;100277.44;4984515;28;20046;-82
2021/01/28 04:18:07;;;;;;;25.55;7.40;;;;;;;4.16;100.00;100272.97;4977892;28;20126;-81
2021/01/28 04:20:35;;;;;;;24.92;8.23;;;;;;;4.16;100.00;100269.47;4980398;28;20045;-81
2021/01/28 04:23:01;;;;;;;24.27;8.50;;;;;;;4.13;100.00;100267.91;5000386;28;20034;-82
2021/01/28 04:25:28;;;;;;;18.08;7.70;;;;;;;4.14;100.00;100269.59;4980893;28;20043;-82
2021/01/28 04:27:55;;;;;;;21.75;7.72;;;;;;;4.14;100.00;100263.44;4980801;28;20417;-82
2021/01/28 04:30:28;;;;;;;24.88;8.10;;;;;;;4.13;100.00;100251.97;4983264;28;20043;-82
2021/01/28 04:32:53;;;;;;;24.48;8.40;;;;;;;4.14;100.00;100242.19;4981559;28;20119;-81
2021/01/28 04:35:19;;;;;;;24.15;8.45;;;;;;;4.12;100.00;100233.56;4976647;28;20564;-82
2021/01/28 04:37:44;;;;;;;25.98;8.73;;;;;;;4.11;100.00;100238.00;4982123;28;20065;-82
2021/01/28 04:40:28;;;;;;;23.75;8.75;;;;;;;4.11;100.00;100237.16;4981262;28;20042;-82
2021/01/28 04:42:55;;;;;;;29.60;9.40;;;;;;;4.09;100.00;100221.38;4969491;28;20035;-81
2021/01/28 04:45:24;;;;;;;26.48;10.23;;;;;;;4.08;100.00;100201.09;4970830;28;20489;-83
2021/01/28 04:48:00;;;;;;;25.98;9.63;;;;;;;4.06;100.00;100203.91;4974698;28;20130;-82
2021/01/28 04:50:31;;;;;;;35.65;12.02;;;;;;;4.08;100.00;100214.38;4982840;28;20073;-82
2021/01/28 04:53:02;;;;;;;34.28;11.70;;;;;;;4.08;100.00;100214.38;4978010;28;20484;-81
2021/01/28 04:55:49;;;;;;;37.60;12.13;;;;;;;4.07;100.00;100205.56;5015590;28;20038;-82
2021/01/28 04:58:15;;;;;;;34.67;12.07;;;;;;;4.06;100.00;100197.75;4981661;28;20062;-83
2021/01/28 05:00:41;;;;;;;38.22;12.13;;;;;;;4.07;100.00;100191.47;4980631;28;20061;-82
2021/01/28 05:03:19;;;;;;;44.67;11.98;;;;;;;4.06;100.00;100181.81;4981726;28;20071;-83
2021/01/28 05:05:46;;;;;;;36.97;11.45;;;;;;;4.05;100.00;100174.81;4974539;28;20046;-83
2021/01/28 05:08:11;;;;;;;36.38;11.75;;;;;;;4.03;100.00;100166.16;4973179;28;20501;-83
2021/01/28 05:10:43;;;;;;;34.63;10.88;;;;;;;4.02;100.00;100159.16;4978347;28;20054;-82
2021/01/28 05:13:09;;;;;;;44.22;12.93;;;;;;;4.04;100.00;100167.84;4982663;28;20062;-82
2021/01/28 05:15:41;;;;;;;45.10;13.30;;;;;;;4.03;100.00;100155.56;4979917;28;20498;-83
2021/01/28 05:18:09;;;;;;;55.10;14.60;;;;;;;4.02;100.00;100143.22;4978336;28;20689;-82
2021/01/28 05:20:36;;;;;;;48.13;14.00;;;;;;;4.03;100.00;100140.44;4975305;28;20843;-82
2021/01/28 05:23:09;;;;;;;51.63;16.15;;;;;;;4.02;100.00;100138.75;4982447;28;20053;-82
2021/01/28 05:25:40;;;;;;;44.95;14.27;;;;;;;4.02;100.00;100129.97;4977560;28;20050;-82
2021/01/28 05:28:37;;;;;;;51.88;16.30;;;;;;;4.01;100.00;100125.63;4974461;28;20054;-82
2021/01/28 05:31:04;;;;;;;48.30;16.58;;;;;;;4.00;100.00;100115.97;4979107;28;20070;-82
2021/01/28 05:33:39;;;;;;;50.75;16.65;;;;;;;4.00;100.00;100103.56;4983756;28;20039;-82
2021/01/28 05:36:06;;;;;;;44.58;15.68;;;;;;;4.00;100.00;100098.25;4981556;28;20101;-82
2021/01/28 05:38:47;;;;;;;50.80;16.60;;;;;;;4.01;100.00;100094.59;4984060;28;20050;-83
2021/01/28 05:41:36;;;;;;;59.03;17.95;;;;;;;3.99;100.00;100079.78;4981296;28;20117;-82
2021/01/28 05:44:20;;;;;;;52.05;16.90;;;;;;;3.99;100.00;100077.13;4988180;28;20042;-83
2021/01/28 05:47:04;;;;;;;65.32;20.02;;;;;;;3.97;100.00;100071.97;4982357;28;20043;-81
2021/01/28 05:49:30;;;;;;;68.32;21.40;;;;;;;4.00;100.00;100065.53;4956034;28;20108;-81
2021/01/28 05:51:56;;;;;;;70.45;21.92;;;;;;;4.00;100.00;100068.19;4982137;28;20042;-82
2021/01/28 05:54:24;;;;;;;74.28;21.88;;;;;;;4.02;100.00;100063.59;4988539;28;20050;-83
2021/01/28 05:56:55;;;;;;;77.57;21.57;;;;;;;4.00;100.00;100058.44;4975114;28;20050;-82
2021/01/28 05:59:35;;;;;;;77.90;21.50;;;;;;;4.02;100.00;100047.66;4968839;28;20513;-82
2021/01/28 06:02:19;;;;;;;84.88;21.70;;;;;;;4.01;100.00;100056.59;4971813;28;20049;-81
2021/01/28 06:05:20;;;;;;;67.88;20.13;;;;;;;3.98;100.00;100039.13;4980835;28;20111;-83
2021/01/28 06:08:14;;;;;;;55.45;18.45;;;;;;;3.98;100.00;100035.66;4989098;28;20050;-82
2021/01/28 06:11:09;;;;;;;55.17;17.50;;;;;;;3.97;100.00;100039.25;4994041;28;20141;-82
2021/01/28 06:14:22;;;;;;;55.80;17.80;;;;;;;3.94;100.00;100020.97;4969644;28;20041;-82
2021/01/28 06:17:04;;;;;;;58.05;18.30;;;;;;;3.94;100.00;100028.94;4934454;29;20454;-82
2021/01/28 06:19:38;;;;;;;49.95;15.75;;;;;;;3.94;100.00;100019.16;4994789;28;20461;-81
2021/01/28 06:22:32;;;;;;;49.40;15.70;;;;;;;3.94;100.00;100016.50;4986469;28;20217;-81
2021/01/28 06:25:15;;;;;;;51.17;16.10;;;;;;;3.94;100.00;100007.69;4991895;28;20401;-81
2021/01/28 06:28:10;;;;;;;50.03;16.00;;;;;;;3.93;100.00;100009.50;4992831;28;20042;-82
2021/01/28 06:30:45;;;;;;;59.08;17.08;;;;;;;3.93;100.00;100006.84;4987920;28;20143;-83
2021/01/28 06:33:34;;;;;;;58.10;17.27;;;;;;;3.94;100.00;100005.91;4997608;28;20076;-82
2021/01/28 06:36:25;;;;;;;65.97;17.85;;;;;;;3.93;100.00;100008.69;5002637;28;20045;-82
2021/01/28 06:39:26;;;;;;;59.35;17.90;;;;;;;3.92;100.00;99991.09;4986011;28;20073;-82
2021/01/28 06:42:02;;;;;;;64.68;17.90;;;;;;;3.92;100.00;99983.13;4971540;28;20041;-83
2021/01/28 06:44:34;;;;;;;55.20;17.90;;;;;;;3.91;100.00;99984.91;5003782;28;20053;-82
2021/01/28 06:47:06;;;;;;;67.72;19.83;;;;;;;3.93;100.00;99974.16;4995505;28;20046;-82
2021/01/28 06:50:00;;;;;;;57.10;19.48;;;;;;;3.93;100.00;99968.84;5005595;28;20034;-82
2021/01/28 06:53:13;;;;;;;57.55;20.55;;;;;;;3.91;100.00;99963.69;4998800;28;20048;-82
2021/01/28 06:55:57;;;;;;;52.20;20.02;;;;;;;3.90;100.00;99963.84;4881945;29;20585;-82
2021/01/28 06:58:28;;;;;;;51.28;18.48;;;;;;;3.88;100.00;99955.16;4988227;28;20043;-83
2021/01/28 07:01:03;;;;;;;42.63;18.05;;;;;;;3.86;100.00;99952.66;4983341;28;20046;-82
2021/01/28 07:03:32;;;;;;;42.85;15.85;;;;;;;3.87;100.00;99954.34;4988493;28;20035;-82
2021/01/28 07:06:02;;;;;;;43.25;17.27;;;;;;;3.90;100.00;99953.22;4990344;28;20034;-82
2021/01/28 07:08:31;;;;;;;42.95;15.80;;;;;;;3.90;100.00;99953.22;5017552;28;20042;-83
2021/01/28 07:10:57;;;;;;;44.22;15.38;;;;;;;3.88;100.00;99955.16;5020278;28;20050;-82
2021/01/28 07:13:28;;;;;;;40.30;14.93;;;;;;;3.87;100.00;99958.81;4999840;28;20042;-83
2021/01/28 07:16:00;;;;;;;35.58;13.40;;;;;;;3.87;100.00;99945.53;5005401;28;20041;-82
2021/01/28 07:18:35;;;;;;;37.10;14.25;;;;;;;3.87;100.00;99945.53;4998748;28;20038;-82
2021/01/28 07:21:06;;;;;;;39.17;14.32;;;;;;;3.85;100.00;99940.34;5016546;28;20125;-83
2021/01/28 07:23:39;;;;;;;43.38;14.48;;;;;;;3.84;100.00;99928.91;4995407;28;20040;-82
2021/01/28 07:26:10;;;;;;;48.67;15.27;;;;;;;3.84;100.00;99918.28;5017130;28;20094;-81
2021/01/28 07:28:36;;;;;;;43.90;14.52;;;;;;;3.81;100.00;99915.94;5000938;28;20052;-82
2021/01/28 07:31:07;;;;;;;41.20;14.02;;;;;;;3.82;100.00;99914.09;5001251;28;20044;-83
2021/01/28 07:33:50;;;;;;;41.30;14.88;;;;;;;3.82;100.00;99912.28;5016832;28;20562;-82
2021/01/28 07:36:24;;;;;;;37.88;13.75;;;;;;;3.80;100.00;99911.63;4997875;28;20042;-82
2021/01/28 07:38:54;;;;;;;36.22;14.23;;;;;;;3.80;100.00;99911.63;4998778;28;20045;-83
2021/01/28 07:41:31;;;;;;;39.28;14.55;;;;;;;3.81;100.00;99897.34;5002950;28;20056;-83
2021/01/28 07:44:24;;;;;;;35.90;13.27;;;;;;;3.79;100.00;99894.00;5001535;28;20045;-83
2021/01/28 07:46:51;;;;;;;39.35;15.55;;;;;;;3.77;100.00;99877.41;5002826;28;20030;-83
2021/01/28 07:49:23;;;;;;;48.88;14.85;;;;;;;3.77;100.00;99868.56;5002760;28;20041;-84
2021/01/28 07:52:09;;;;;;;41.67;16.77;;;;;;;3.77;100.00;99861.47;5009595;28;20058;-83
2021/01/28 07:54:38;;;;;;;40.10;12.80;;;;;;;3.76;100.00;99859.78;5008494;28;20408;-83
2021/01/28 07:57:31;;;;;;;38.03;15.50;;;;;;;3.78;100.00;99852.53;5010641;28;20061;-83
2021/01/28 07:59:57;;;;;;;41.33;15.70;;;;;;;3.78;100.00;99838.41;4987219;28;20042;-82
2021/01/28 08:02:33;;;;;;;38.75;15.40;;;;;;;3.77;100.00;99842.91;4999903;28;20056;-83
2021/01/28 08:05:23;;;;;;;41.38;17.27;;;;;;;3.78;100.00;99833.94;5003834;28;20041;-82
2021/01/28 08:08:08;;;;;;;45.63;16.13;;;;;;;3.78;100.00;99825.97;5001694;28;20043;-82
2021/01/28 08:10:39;;;;;;;45.65;17.25;;;;;;;3.78;100.00;99818.03;5000028;28;20520;-82
2021/01/28 08:13:25;;;;;;;45.63;18.58;;;;;;;3.79;100.00;99818.84;5008131;28;20049;-81
2021/01/28 08:16:06;;;;;;;48.80;17.38;;;;;;;3.79;100.00;99810.88;4988627;28;20091;-83
2021/01/28 08:18:39;;;;;;;46.30;17.10;;;;;;;3.80;100.00;99810.75;4986203;28;20121;-83
2021/01/28 08:21:09;;;;;;;57.92;20.08;;;;;;;3.81;100.00;99815.06;4984371;28;20042;-82
2021/01/28 08:23:37;;;;;;;52.33;18.70;;;;;;;3.83;100.00;99806.97;4982875;28;20050;-82
2021/01/28 08:26:08;;;;;;;43.72;17.30;;;;;;;3.82;100.00;99794.69;4998984;28;20396;-82
2021/01/28 08:28:44;;;;;;;54.20;19.40;;;;;;;3.84;100.00;99790.91;4996192;28;20041;-82
2021/01/28 08:31:35;;;;;;;56.20;19.20;;;;;;;3.82;100.00;99792.84;4984617;28;22089;-82
2021/01/28 08:34:04;;;;;;;54.22;17.98;;;;;;;3.82;100.00;99792.03;4982471;28;20470;-84
2021/01/28 08:36:56;;;;;;;51.92;17.98;;;;;;;3.83;100.00;99785.75;4982116;28;20333;-82
2021/01/28 08:39:32;;;;;;;56.30;17.58;;;;;;;3.83;100.00;99791.88;4993748;28;20125;-82
2021/01/28 08:42:11;;;;;;;46.65;17.02;;;;;;;3.84;100.00;99790.91;5008267;28;20520;-83
2021/01/28 08:44:39;;;;;;;47.85;16.75;;;;;;;3.87;100.00;99787.13;5016114;28;20041;-83
2021/01/28 08:47:17;;;;;;;46.55;16.27;;;;;;;3.87;100.00;99784.47;5006810;28;20042;-82
2021/01/28 08:49:48;;;;;;;42.38;14.80;;;;;;;3.86;100.00;99782.81;4986145;28;20104;-82
2021/01/28 08:52:17;;;;;;;48.35;15.60;;;;;;;3.88;100.00;99780.00;4980357;28;20046;-82
2021/01/28 08:54:46;;;;;;;37.90;14.60;;;;;;;3.88;100.00;99774.69;5004057;28;20483;-82
2021/01/28 08:57:17;;;;;;;36.38;13.93;;;;;;;3.87;100.00;99773.84;5019628;28;20497;-82
2021/01/28 08:59:50;;;;;;;47.63;16.98;;;;;;;3.90;100.00;99778.03;5004662;28;20540;-82
2021/01/28 09:02:30;;;;;;;47.08;15.00;;;;;;;3.90;100.00;99768.25;5003109;28;20072;-82
2021/01/28 09:05:17;;;;;;;37.17;13.95;;;;;;;3.90;100.00;99762.09;5007568;28;20504;-83
2021/01/28 09:07:49;;;;;;;45.13;15.32;;;;;;;3.89;100.00;99761.28;5008212;28;20045;-83
2021/01/28 09:10:28;;;;;;;45.72;16.23;;;;;;;3.91;100.00;99753.16;5018155;28;20054;-84
2021/01/28 09:13:30;;;;;;;43.05;16.92;;;;;;;3.92;100.00;99746.88;5004383;28;20092;-83
2021/01/28 09:16:18;;;;;;;45.33;16.83;;;;;;;3.91;100.00;99742.53;5000246;28;20066;-84
2021/01/28 09:18:46;;;;;;;48.60;17.07;;;;;;;3.91;100.00;99742.53;5001933;28;20046;-85
2021/01/28 09:21:23;;;;;;;44.10;17.48;;;;;;;3.91;100.00;99739.88;5002412;28;20097;-83
2021/01/28 09:24:03;;;;;;;43.38;17.98;;;;;;;3.94;100.00;99742.25;4999205;28;20045;-84
2021/01/28 09:26:37;;;;;;;47.85;18.00;;;;;;;3.94;100.00;99732.47;5002322;28;20053;-83
2021/01/28 09:29:13;;;;;;;42.97;14.85;;;;;;;3.92;100.00;99723.81;4989488;28;20528;-83
2021/01/28 09:31:38;;;;;;;43.35;16.77;;;;;;;3.93;100.00;99722.00;4985318;28;20038;-83
2021/01/28 09:34:30;;;;;;;37.70;15.93;;;;;;;3.95;100.00;99718.22;4985583;28;20041;-83
2021/01/28 09:37:01;;;;;;;44.67;16.67;;;;;;;3.95;100.00;99717.38;4989175;28;20042;-85
2021/01/28 09:39:35;;;;;;;41.63;15.95;;;;;;;3.95;100.00;99706.78;5005504;28;20046;-80
2021/01/28 09:42:20;;;;;;;37.35;15.45;;;;;;;3.96;100.00;99708.44;4983240;28;20050;-84
2021/01/28 09:44:49;;;;;;;34.30;15.43;;;;;;;3.98;100.00;99706.47;5009527;28;20730;-83
2021/01/28 09:47:15;;;;;;;34.83;14.95;;;;;;;3.96;100.00;99709.25;4982280;28;20099;-84
2021/01/28 09:49:41;;;;;;;40.67;16.55;;;;;;;3.98;100.00;99709.13;4978889;28;20194;-84
2021/01/28 09:52:14;;;;;;;34.67;13.82;;;;;;;3.98;100.00;99709.13;4973519;28;20768;-85
2021/01/28 09:54:39;;;;;;;32.90;12.75;;;;;;;3.98;100.00;99707.31;4988258;28;20046;-83
2021/01/28 09:57:04;;;;;;;32.30;14.05;;;;;;;4.00;100.00;99710.66;4967892;28;20532;-84
2021/01/28 09:59:30;;;;;;;37.85;13.85;;;;;;;4.00;100.00;99707.13;4996062;28;20050;-80
2021/01/28 10:01:56;;;;;;;32.40;14.00;;;;;;;3.99;100.00;99700.16;5023363;28;20041;-80
2021/01/28 10:04:21;;;;;;;29.27;12.05;;;;;;;3.99;100.00;99695.69;5014623;28;20041;-83
2021/01/28 10:06:47;;;;;;;28.52;12.05;;;;;;;4.01;100.00;99701.69;4974360;28;20380;-84
2021/01/28 10:09:12;;;;;;;32.78;13.13;;;;;;;4.02;100.00;99697.22;4994488;28;20041;-84
2021/01/28 10:11:39;;;;;;;26.45;11.52;;;;;;;4.01;100.00;99696.38;5000868;28;20874;-83
2021/01/28 10:14:04;;;;;;;31.75;13.57;;;;;;;4.04;100.00;99687.28;4990341;28;20043;-84
2021/01/28 10:16:31;;;;;;;35.63;13.80;;;;;;;4.05;100.00;99686.28;4991045;28;20038;-83
2021/01/28 10:18:57;;;;;;;26.95;13.40;;;;;;;4.06;100.00;99680.03;4971652;28;20042;-86
2021/01/28 10:21:22;;;;;;;27.23;12.38;;;;;;;4.06;100.00;99672.06;5005443;28;20061;-83
2021/01/28 10:23:48;;;;;;;27.77;13.68;;;;;;;4.07;100.00;99673.72;4973264;28;20078;-85
2021/01/28 10:26:13;;;;;;;29.17;12.90;;;;;;;4.10;100.00;99681.38;4972654;28;20050;-84
2021/01/28 10:28:39;;;;;;;29.50;14.60;;;;;;;4.10;100.00;99672.59;4987677;28;20034;-84
2021/01/28 10:31:06;;;;;;;30.13;13.80;;;;;;;4.11;100.00;99674.25;4987228;28;20073;-83
2021/01/28 10:33:35;;;;;;;29.42;13.52;;;;;;;4.12;100.00;99671.44;4969842;28;20052;-84
2021/01/28 10:36:00;;;;;;;29.67;12.40;;;;;;;4.10;100.00;99673.41;4953866;28;20564;-83
2021/01/28 10:38:26;;;;;;;31.63;14.07;;;;;;;4.11;100.00;99672.41;4975505;28;20062;-85
2021/01/28 10:40:53;;;;;;;29.42;13.10;;;;;;;4.11;100.00;99675.06;5002527;28;20070;-84
2021/01/28 10:43:19;;;;;;;26.17;12.23;;;;;;;4.12;100.00;99673.28;4981874;28;20119;-84
2021/01/28 10:45:45;;;;;;;31.83;14.30;;;;;;;4.14;100.00;99669.47;4982947;28;20130;-84
2021/01/28 10:48:11;;;;;;;26.58;12.82;;;;;;;4.14;100.00;99674.78;5000354;28;20069;-84
2021/01/28 10:50:37;;;;;;;32.08;12.68;;;;;;;4.14;100.00;99663.31;4967962;28;20230;-84
2021/01/28 10:53:03;;;;;;;30.08;11.85;;;;;;;4.14;100.00;99655.34;4996002;28;20085;-85
2021/01/28 10:55:31;;;;;;;30.40;13.13;;;;;;;4.15;100.00;99655.22;4983944;28;20533;-84
2021/01/28 10:57:57;;;;;;;29.25;12.18;;;;;;;4.14;100.00;99652.69;4986767;28;20532;-85
2021/01/28 11:00:23;;;;;;;25.65;12.32;;;;;;;4.15;100.00;99649.06;4987306;28;20129;-86
2021/01/28 11:02:49;;;;;;;29.10;14.07;;;;;;;4.15;100.00;99641.94;4985597;28;20081;-84
2021/01/28 11:05:23;;;;;;;27.35;12.32;;;;;;;4.16;100.00;99632.16;5002333;28;20039;-84
2021/01/28 11:07:49;;;;;;;28.48;13.60;;;;;;;4.18;100.00;99632.84;4979538;28;20038;-85
2021/01/28 11:10:15;;;;;;;27.90;12.90;;;;;;;4.15;100.00;99628.66;4986469;28;20049;-85
2021/01/28 11:12:41;;;;;;;33.72;13.13;;;;;;;4.14;100.00;99628.81;4952386;28;20046;-85
2021/01/28 11:15:09;;;;;;;26.70;12.52;;;;;;;4.14;100.00;99623.50;4999242;28;20528;-83
2021/01/28 11:17:34;;;;;;;30.23;14.60;;;;;;;4.15;100.00;99627.84;4986845;28;20120;-86
2021/01/28 11:20:00;;;;;;;29.63;14.02;;;;;;;4.15;100.00;99626.00;4988266;28;20493;-84
2021/01/28 11:22:25;;;;;;;29.60;14.85;;;;;;;4.17;100.00;99628.50;4983610;28;20093;-83
2021/01/28 11:24:51;;;;;;;30.58;14.38;;;;;;;4.17;100.00;99621.38;4974188;28;20042;-84
2021/01/28 11:27:16;;;;;;;30.45;12.48;;;;;;;4.16;100.00;99625.00;4988029;28;20058;-81
2021/01/28 11:29:42;;;;;;;27.60;13.70;;;;;;;4.15;100.00;99626.00;4988284;28;20038;-85